sensor_id;sensor_type;location;lat;lon;timestamp;P1;P2;P0
68198;PMS7003;55021;51.554;17.044;2024-02-21T00:13:02;13.00;9.75;3.50
68198;PMS7003;55021;51.554;17.044;2024-02-21T00:28:05;12.25;11.50;5.00
68198;PMS7003;55021;51.554;17.044;2024-02-21T00:43:08;13.50;13.50;5.00
68198;PMS7003;55021;51.554;17.044;2024-02-21T00:58:10;12.25;10.50;4.00
68198;PMS7003;55021;51.554;17.044;2024-02-21T01:13:13;15.00;13.00;5.00
68198;PMS7003;55021;51.554;17.044;2024-02-21T01:28:15;13.25;11.50;5.25
68198;PMS7003;55021;51.554;17.044;2024-02-21T01:43:18;13.00;11.50;5.00
68198;PMS7003;55021;51.554;17.044;2024-02-21T02:13:25;14.00;13.25;5.00
68198;PMS7003;55021;51.554;17.044;2024-02-21T02:43:30;15.00;13.00;6.00
68198;PMS7003;55021;51.554;17.044;2024-02-21T02:58:32;15.00;12.00;5.75
68198;PMS7003;55021;51.554;17.044;2024-02-21T03:13:35;14.75;13.75;6.00
68198;PMS7003;55021;51.554;17.044;2024-02-21T03:28:37;17.25;11.75;5.75
68198;PMS7003;55021;51.554;17.044;2024-02-21T03:43:39;16.75;12.00;6.00
68198;PMS7003;55021;51.554;17.044;2024-02-21T03:58:42;16.75;13.75;6.25
68198;PMS7003;55021;51.554;17.044;2024-02-21T04:13:45;20.25;14.25;6.00
68198;PMS7003;55021;51.554;17.044;2024-02-21T04:28:47;22.00;15.50;7.00
68198;PMS7003;55021;51.554;17.044;2024-02-21T04:43:50;15.25;11.75;5.00
68198;PMS7003;55021;51.554;17.044;2024-02-21T04:58:52;16.25;14.00;6.00
68198;PMS7003;55021;51.554;17.044;2024-02-21T05:13:55;17.00;13.75;6.25
68198;PMS7003;55021;51.554;17.044;2024-02-21T05:28:57;14.50;12.00;5.75
68198;PMS7003;55021;51.554;17.044;2024-02-21T05:44:00;19.75;15.75;7.00
68198;PMS7003;55021;51.554;17.044;2024-02-21T05:59:02;19.25;11.00;3.75
68198;PMS7003;55021;51.554;17.044;2024-02-21T06:14:05;16.75;14.00;6.00
68198;PMS7003;55021;51.554;17.044;2024-02-21T06:29:07;14.00;12.50;6.25
68198;PMS7003;55021;51.554;17.044;2024-02-21T06:44:09;17.25;15.75;6.25
68198;PMS7003;55021;51.554;17.044;2024-02-21T06:59:32;19.50;15.50;7.75
68198;PMS7003;55021;51.554;17.044;2024-02-21T07:14:35;17.00;12.25;6.00
68198;PMS7003;55021;51.554;17.044;2024-02-21T07:44:43;16.50;14.50;6.25
68198;PMS7003;55021;51.554;17.044;2024-02-21T08:14:53;16.00;14.00;6.00
68198;PMS7003;55021;51.554;17.044;2024-02-21T08:29:56;19.75;12.00;5.50
68198;PMS7003;55021;51.554;17.044;2024-02-21T08:44:59;17.25;13.00;6.25
68198;PMS7003;55021;51.554;17.044;2024-02-21T09:00:05;15.50;13.50;6.25
68198;PMS7003;55021;51.554;17.044;2024-02-21T09:15:27;18.75;16.50;7.75
68198;PMS7003;55021;51.554;17.044;2024-02-21T09:45:49;12.00;11.75;6.00
68198;PMS7003;55021;51.554;17.044;2024-02-21T10:16:42;20.25;17.00;8.50
68198;PMS7003;55021;51.554;17.044;2024-02-21T10:31:45;21.75;15.75;7.00
68198;PMS7003;55021;51.554;17.044;2024-02-21T10:46:53;20.75;18.00;10.00
68198;PMS7003;55021;51.554;17.044;2024-02-21T11:02:00;20.00;16.00;8.25
68198;PMS7003;55021;51.554;17.044;2024-02-21T11:17:16;21.00;14.00;8.00
68198;PMS7003;55021;51.554;17.044;2024-02-21T11:32:38;16.25;15.75;7.25
68198;PMS7003;55021;51.554;17.044;2024-02-21T11:47:43;19.50;16.25;7.25
68198;PMS7003;55021;51.554;17.044;2024-02-21T12:03:11;19.00;16.50;8.00
68198;PMS7003;55021;51.554;17.044;2024-02-21T12:33:42;19.00;14.75;8.00
68198;PMS7003;55021;51.554;17.044;2024-02-21T12:48:51;18.50;16.75;7.50
68198;PMS7003;55021;51.554;17.044;2024-02-21T13:03:54;17.75;14.25;8.00
68198;PMS7003;55021;51.554;17.044;2024-02-21T13:18:57;15.50;14.50;7.25
68198;PMS7003;55021;51.554;17.044;2024-02-21T13:33:59;18.25;14.75;8.25
68198;PMS7003;55021;51.554;17.044;2024-02-21T13:49:03;16.50;16.00;8.00
68198;PMS7003;55021;51.554;17.044;2024-02-21T14:19:09;17.50;16.75;8.25
68198;PMS7003;55021;51.554;17.044;2024-02-21T14:34:16;14.50;14.25;8.00
68198;PMS7003;55021;51.554;17.044;2024-02-21T14:49:25;20.00;15.00;8.50
68198;PMS7003;55021;51.554;17.044;2024-02-21T15:04:30;19.00;16.00;9.00
68198;PMS7003;55021;51.554;17.044;2024-02-21T15:19:33;16.75;14.00;8.00
68198;PMS7003;55021;51.554;17.044;2024-02-21T15:34:36;15.25;15.00;9.00
68198;PMS7003;55021;51.554;17.044;2024-02-21T15:49:39;17.50;16.25;9.50
68198;PMS7003;55021;51.554;17.044;2024-02-21T16:04:42;18.00;15.50;8.00
68198;PMS7003;55021;51.554;17.044;2024-02-21T16:19:45;18.25;16.50;9.00
68198;PMS7003;55021;51.554;17.044;2024-02-21T16:34:47;22.25;19.50;9.25
68198;PMS7003;55021;51.554;17.044;2024-02-21T16:49:50;19.50;16.50;9.50
68198;PMS7003;55021;51.554;17.044;2024-02-21T17:04:56;17.25;15.00;9.00
68198;PMS7003;55021;51.554;17.044;2024-02-21T17:19:58;18.75;17.00;9.00
68198;PMS7003;55021;51.554;17.044;2024-02-21T17:35:02;18.50;15.50;9.00
68198;PMS7003;55021;51.554;17.044;2024-02-21T17:50:05;20.00;19.00;11.50
68198;PMS7003;55021;51.554;17.044;2024-02-21T18:05:09;51.75;42.00;26.00
68198;PMS7003;55021;51.554;17.044;2024-02-21T18:20:27;27.00;24.50;15.75
68198;PMS7003;55021;51.554;17.044;2024-02-21T18:35:29;36.75;33.75;20.75
68198;PMS7003;55021;51.554;17.044;2024-02-21T19:05:34;55.50;41.75;27.75
68198;PMS7003;55021;51.554;17.044;2024-02-21T19:20:57;36.50;32.25;19.50
68198;PMS7003;55021;51.554;17.044;2024-02-21T19:36:05;29.50;25.00;15.75
68198;PMS7003;55021;51.554;17.044;2024-02-21T20:06:16;72.00;54.75;33.75
68198;PMS7003;55021;51.554;17.044;2024-02-21T20:37:04;67.25;50.00;31.00
68198;PMS7003;55021;51.554;17.044;2024-02-21T20:52:12;66.00;49.25;30.75
68198;PMS7003;55021;51.554;17.044;2024-02-21T22:41:16;58.25;42.50;27.75
68198;PMS7003;55021;51.554;17.044;2024-02-21T23:12:23;48.00;40.50;25.25
68198;PMS7003;55021;51.554;17.044;2024-02-21T23:57:36;42.25;37.25;25.00
